Time;durP1;ratioP1;P1;durP2;ratioP2;P2;SDS_P1;SDS_P2;PMS_P1;PMS_P2;Temp;Humidity;BMP_temperature;BMP_pressure;BME280_temperature;BME280_humidity;BME280_pressure;Samples;Min_cycle;Max_cycle;Signal;HPM_P1;HPM_P2
2022/04/21 00:03:44;;;;;;;;;;;;;;;17.19;30.10;95027.91;10320428;28;1373;-59
2022/04/21 00:08:45;;;;;;;;;;;;;;;17.19;30.17;95025.28;10306920;28;1714;-58
2022/04/21 00:13:45;;;;;;;;;;;;;;;17.18;30.02;95015.88;10306103;28;1968;-57
2022/04/21 00:18:46;;;;;;;;;;;;;;;17.17;30.06;95005.66;10313109;28;1541;-56
2022/04/21 00:23:46;;;;;;;;;;;;;;;17.18;30.16;94999.38;10311869;28;2661;-57
2022/04/21 00:28:47;;;;;;;;;;;;;;;17.19;30.11;95000.94;10308585;28;1711;-58
2022/04/21 00:33:47;;;;;;;;;;;;;;;17.18;30.18;94992.31;10312533;28;2078;-58
2022/04/21 00:38:47;;;;;;;;;;;;;;;17.17;30.16;94985.47;10312958;28;1492;-58
2022/04/21 00:43:48;;;;;;;;;;;;;;;17.17;30.11;94988.09;10313038;28;1320;-58
2022/04/21 00:48:48;;;;;;;;;;;;;;;17.17;30.16;94987.31;10313625;28;1534;-56
2022/04/21 00:53:49;;;;;;;;;;;;;;;17.16;30.00;94977.91;10295958;28;1981;-57
2022/04/21 00:58:50;;;;;;;;;;;;;;;17.16;30.06;94986.56;10329895;28;1487;-55
2022/04/21 01:03:50;;;;;;;;;;;;;;;17.15;30.03;94979.72;10330401;28;1327;-58
2022/04/21 01:08:50;;;;;;;;;;;;;;;17.15;30.11;94982.34;10312156;28;1543;-57
2022/04/21 01:13:51;;;;;;;;;;;;;;;17.16;30.02;94976.06;10329458;28;1975;-57
2022/04/21 01:18:52;;;;;;;;;;;;;;;17.17;29.97;94987.31;10295881;28;1542;-55
2022/04/21 01:23:52;;;;;;;;;;;;;;;17.16;30.01;94980.53;10328341;28;1252;-55
2022/04/21 01:28:53;;;;;;;;;;;;;;;17.16;30.04;94973.47;10308743;28;1519;-57
2022/04/21 01:33:53;;;;;;;;;;;;;;;17.15;29.89;94973.72;10311209;28;1973;-56
2022/04/21 01:44:13;;;;;;;;;;;;;;;17.15;30.04;94977.13;10328656;28;1291;-53
2022/04/21 01:49:13;;;;;;;;;;;;;;;17.14;29.99;94972.94;10328519;28;1450;-56
2022/04/21 01:54:14;;;;;;;;;;;;;;;17.14;29.91;94970.31;10310722;28;1964;-57
2022/04/21 01:59:14;;;;;;;;;;;;;;;17.16;29.96;94965.59;10327598;28;1547;-55
2022/04/21 02:04:15;;;;;;;;;;;;;;;17.15;30.05;94969.25;10328069;28;1411;-55
2022/04/21 02:09:17;;;;;;;;;;;;;;;17.15;30.01;94964.03;10327107;28;1403;-56
2022/04/21 02:14:17;;;;;;;;;;;;;;;17.13;30.00;94947.78;10327881;28;2043;-60
2022/04/21 02:19:18;;;;;;;;;;;;;;;17.13;30.09;94955.66;10421610;22;1794;-43
2022/04/21 02:24:18;;;;;;;;;;;;;;;17.15;30.06;94956.16;10389460;28;1520;-40
2022/04/21 02:29:18;;;;;;;;;;;;;;;17.15;30.04;94956.16;10351290;28;1596;-40
2022/04/21 02:34:18;;;;;;;;;;;;;;;17.13;29.88;94953.03;10375858;28;1910;-40
2022/04/21 02:39:19;;;;;;;;;;;;;;;17.14;29.96;94952.00;10362669;28;1457;-39
2022/04/21 02:44:19;;;;;;;;;;;;;;;17.14;29.97;94949.38;10349210;28;1375;-39
2022/04/21 02:49:20;;;;;;;;;;;;;;;17.13;29.87;94941.78;10355867;28;1956;-40
2022/04/21 02:59:39;;;;;;;;;;;;;;;17.13;29.96;94939.16;10363766;28;1371;-39
2022/04/21 03:04:40;;;;;;;;;;;;;;;17.13;29.92;94939.94;10366767;28;1311;-38
2022/04/21 03:09:40;;;;;;;;;;;;;;;17.13;29.90;94932.09;10367545;28;1439;-39
2022/04/21 03:14:41;;;;;;;;;;;;;;;17.13;29.90;94934.69;10369302;28;1985;-39
2022/04/21 03:19:41;;;;;;;;;;;;;;;17.13;29.99;94939.16;10364047;28;1490;-38
2022/04/21 03:24:42;;;;;;;;;;;;;;;17.13;29.99;94939.16;10364315;28;1298;-38
2022/04/21 03:29:44;;;;;;;;;;;;;;;17.13;29.91;94931.28;10345553;28;1296;-42
2022/04/21 03:34:45;;;;;;;;;;;;;;;17.12;29.90;94929.75;10348052;28;1973;-40
2022/04/21 03:39:45;;;;;;;;;;;;;;;17.11;29.91;94934.19;10346314;28;1408;-42
2022/04/21 03:44:46;;;;;;;;;;;;;;;17.12;29.96;94925.31;10363005;28;1393;-45
2022/04/21 03:49:47;;;;;;;;;;;;;;;17.12;29.82;94927.91;10345600;28;1836;-41
2022/04/21 03:54:47;;;;;;;;;;;;;;;17.12;29.90;94921.88;10363985;28;1909;-40
2022/04/21 03:59:48;;;;;;;;;;;;;;;17.13;29.97;94924.22;10359307;28;1383;-41
2022/04/21 04:04:49;;;;;;;;;;;;;;;17.11;29.80;94915.88;10344328;28;1357;-39
2022/04/21 04:15:09;;;;;;;;;;;;;;;17.12;29.81;94906.19;10355229;28;1973;-39
2022/04/21 04:20:10;;;;;;;;;;;;;;;17.11;29.89;94902.78;10341273;28;1387;-42
2022/04/21 04:25:10;;;;;;;;;;;;;;;17.11;29.87;94902.78;10363073;28;1372;-40
2022/04/21 04:30:11;;;;;;;;;;;;;;;17.12;29.82;94909.59;10361577;28;1427;-40
2022/04/21 04:35:12;;;;;;;;;;;;;;;17.13;29.81;94900.66;10362290;28;1907;-41
2022/04/21 04:40:12;;;;;;;;;;;;;;;17.13;29.80;94903.28;10363223;28;1450;-39
2022/04/21 04:50:32;;;;;;;;;;;;;;;17.13;29.85;94912.97;10356359;28;1411;-47
2022/04/21 04:55:32;;;;;;;;;;;;;;;17.12;29.70;94916.66;10364266;28;1910;-41
2022/04/21 05:00:33;;;;;;;;;;;;;;;17.13;29.85;94912.97;10359849;28;1557;-39
2022/04/21 05:05:33;;;;;;;;;;;;;;;17.13;29.77;94916.38;10368767;28;1291;-40
2022/04/21 05:10:34;;;;;;;;;;;;;;;17.13;29.95;94912.97;10352128;28;1365;-42
2022/04/21 05:15:35;;;;;;;;;;;;;;;17.12;29.73;94912.22;10373501;28;1973;-43
2022/04/21 05:20:35;;;;;;;;;;;;;;;17.12;29.79;94912.22;10353051;28;1550;-43
2022/04/21 05:25:36;;;;;;;;;;;;;;;17.13;29.72;94911.13;10350815;28;1394;-41
2022/04/21 05:30:55;;;;;;;;;;;;;;;17.13;29.81;94910.34;10349609;28;1686;-41
2022/04/21 05:35:56;;;;;;;;;;;;;;;17.14;29.75;94904.84;10350179;28;1918;-41
2022/04/21 05:40:56;;;;;;;;;;;;;;;17.12;29.73;94904.34;10367303;28;1411;-43
2022/04/21 05:45:58;;;;;;;;;;;;;;;17.11;29.78;94905.38;10349065;28;1372;-40
2022/04/21 05:50:58;;;;;;;;;;;;;;;17.13;29.74;94911.13;10351414;28;1156;-39
2022/04/21 05:55:59;;;;;;;;;;;;;;;17.12;29.74;94912.22;10349499;28;1967;-41
2022/04/21 06:01:00;;;;;;;;;;;;;;;17.13;29.77;94905.09;10365558;28;1336;-41
2022/04/21 06:06:00;;;;;;;;;;;;;;;17.11;29.78;94900.16;10369197;28;1293;-42
2022/04/21 06:11:00;;;;;;;;;;;;;;;17.11;29.75;94908.00;10368653;28;1355;-42
2022/04/21 06:16:02;;;;;;;;;;;;;;;17.11;29.82;94908.00;10367997;28;1891;-38
2022/04/21 06:21:02;;;;;;;;;;;;;;;17.10;29.82;94901.97;10366603;28;1360;-39
2022/04/21 06:26:04;;;;;;;;;;;;;;;17.12;29.69;94900.94;10365935;28;1445;-39
2022/04/21 06:31:05;;;;;;;;;;;;;;;17.11;29.65;94900.16;10358187;28;2122;-41
2022/04/21 06:36:07;;;;;;;;;;;;;;;17.12;29.88;94911.41;10350143;28;1970;-42
2022/04/21 06:41:07;;;;;;;;;;;;;;;17.10;29.76;94911.69;10348240;28;1543;-40
2022/04/21 06:51:28;;;;;;;;;;;;;;;17.11;29.84;94894.91;10361316;28;1352;-41
2022/04/21 06:56:28;;;;;;;;;;;;;;;17.10;29.90;94898.59;10348914;28;1976;-42
2022/04/21 07:01:28;;;;;;;;;;;;;;;17.08;29.91;94890.25;10343764;28;1516;-39
2022/04/21 07:06:29;;;;;;;;;;;;;;;17.09;29.88;94897.03;10348539;28;1857;-40
2022/04/21 07:11:30;;;;;;;;;;;;;;;17.09;29.85;94897.81;10348897;28;1333;-43
2022/04/21 07:16:31;;;;;;;;;;;;;;;17.09;29.88;94897.03;10364269;28;1910;-39
2022/04/21 07:21:32;;;;;;;;;;;;;;;17.10;29.88;94898.59;10364453;28;1364;-39
2022/04/21 07:26:32;;;;;;;;;;;;;;;17.09;29.92;94902.25;10362098;28;1349;-39
2022/04/21 07:31:35;;;;;;;;;;;;;;;17.09;29.93;94899.66;10359611;28;1604;-39
2022/04/21 07:36:35;;;;;;;;;;;;;;;17.08;29.91;94900.72;10331809;28;1969;-39
2022/04/21 07:41:35;;;;;;;;;;;;;;;17.09;29.90;94903.06;10363996;28;1544;-40
2022/04/21 07:46:36;;;;;;;;;;;;;;;17.09;29.97;94904.88;10363773;28;1351;-39
2022/04/21 07:51:37;;;;;;;;;;;;;;;17.07;30.04;94901.75;10343205;28;1524;-42
2022/04/21 07:56:37;;;;;;;;;;;;;;;17.06;29.96;94903.56;10363103;28;1973;-40
2022/04/21 08:01:37;;;;;;;;;;;;;;;17.05;30.08;94903.84;10342888;28;1365;-38
2022/04/21 08:06:38;;;;;;;;;;;;;;;17.06;30.09;94903.56;10345537;28;1303;-39
2022/04/21 08:11:38;;;;;;;;;;;;;;;17.07;30.06;94909.59;10367469;28;1369;-39
2022/04/21 08:16:39;;;;;;;;;;;;;;;17.06;30.08;94908.06;10387193;23;2049;-57
2022/04/21 08:21:39;;;;;;;;;;;;;;;17.07;30.04;94899.13;10421994;28;1262;-58
2022/04/21 08:37:18;;;;;;;;;;;;;;;17.07;30.09;94899.13;10451057;28;1967;-57
2022/04/21 08:42:19;;;;;;;;;;;;;;;17.08;29.99;94903.34;10431338;28;1485;-53
2022/04/21 08:47:19;;;;;;;;;;;;;;;17.06;30.18;94903.56;10433025;28;1855;-54
2022/04/21 08:52:19;;;;;;;;;;;;;;;17.06;30.13;94903.56;10430863;28;1426;-52
2022/04/21 08:57:20;;;;;;;;;;;;;;;17.07;30.05;94904.38;10430950;28;1907;-54
2022/04/21 09:02:20;;;;;;;;;;;;;;;17.07;30.17;94893.91;10434963;28;1327;-55
2022/04/21 09:07:21;;;;;;;;;;;;;;;17.08;30.27;94900.72;10434133;28;1359;-56
2022/04/21 09:12:21;;;;;;;;;;;;;;;17.08;30.23;94898.09;10432753;28;1134;-56
2022/04/21 09:17:21;;;;;;;;;;;;;;;17.09;30.21;94884.72;10432889;28;1922;-53
2022/04/21 09:22:22;;;;;;;;;;;;;;;17.07;30.21;94873.75;10446849;28;1662;-56
2022/04/21 09:27:22;;;;;;;;;;;;;;;17.10;30.19;94872.41;10431388;28;1391;-54
2022/04/21 09:32:23;;;;;;;;;;;;;;;17.10;30.18;94872.41;10435101;28;1442;-52
2022/04/21 09:37:23;;;;;;;;;;;;;;;17.10;30.25;94872.41;10426226;28;1989;-57
2022/04/21 09:42:24;;;;;;;;;;;;;;;17.10;30.17;94867.19;10431377;28;1549;-55
2022/04/21 09:47:27;;;;;;;;;;;;;;;17.10;30.28;94860.09;10429025;28;1372;-55
2022/04/21 09:52:28;;;;;;;;;;;;;;;17.12;30.32;94859.84;10431097;28;1598;-56
2022/04/21 09:57:32;;;;;;;;;;;;;;;17.13;30.29;94855.34;10431182;28;1918;-53
2022/04/21 10:02:33;;;;;;;;;;;;;;;17.13;30.36;94856.16;10433181;28;1396;-57
2022/04/21 10:07:33;;;;;;;;;;;;;;;17.15;30.36;94850.63;10426157;28;1623;-58
2022/04/21 10:12:34;;;;;;;;;;;;;;;17.15;30.54;94837.53;10434202;28;1285;-56
2022/04/21 10:17:35;;;;;;;;;;;;;;;17.15;30.44;94845.38;10430899;28;1922;-53
2022/04/21 10:22:35;;;;;;;;;;;;;;;17.14;30.48;94830.75;10444215;28;1351;-53
2022/04/21 10:27:37;;;;;;;;;;;;;;;17.16;30.46;94834.66;10429432;28;1435;-53
2022/04/21 10:32:46;;;;;;;;;;;;;;;17.16;30.45;94823.41;10448431;28;1396;-56
2022/04/21 10:37:47;;;;;;;;;;;;;;;17.17;30.41;94817.88;10427612;28;1915;-55
2022/04/21 10:43:03;;;;;;;;;;;;;;;17.18;30.48;94818.69;10445887;28;1231;-54
2022/04/21 10:48:08;;;;;;;;;;;;;;;17.18;30.53;94816.84;10443542;28;1686;-54
2022/04/21 10:58:37;;;;;;;;;;;;;;;17.21;30.60;94813.66;10429533;28;1977;-55
2022/04/21 11:03:38;;;;;;;;;;;;;;;17.20;30.33;94806.88;10432751;28;1127;-54
2022/04/21 11:08:38;;;;;;;;;;;;;;;17.24;30.62;94799.25;10407768;28;1376;-56
2022/04/21 11:13:40;;;;;;;;;;;;;;;17.24;30.58;94794.00;10426032;28;1966;-57
2022/04/21 11:18:41;;;;;;;;;;;;;;;17.24;30.65;94778.28;10428739;28;1340;-57
2022/04/21 11:23:44;;;;;;;;;;;;;;;17.24;30.64;94779.06;10425891;28;1400;-54
2022/04/21 11:28:45;;;;;;;;;;;;;;;17.26;30.66;94790.06;10425688;28;1356;-56
2022/04/21 11:33:46;;;;;;;;;;;;;;;17.27;30.48;94783.75;10429328;28;1913;-55
2022/04/21 11:38:52;;;;;;;;;;;;;;;17.29;30.74;94776.41;10423187;28;1357;-56
2022/04/21 11:43:52;;;;;;;;;;;;;;;17.29;30.92;94776.41;10425637;28;1186;-58
2022/04/21 11:48:58;;;;;;;;;;;;;;;17.32;30.80;94780.31;10429204;28;1345;-56
2022/04/21 11:54:05;;;;;;;;;;;;;;;17.30;30.88;94767.50;10442881;28;1906;-55
2022/04/21 11:59:09;;;;;;;;;;;;;;;17.31;30.72;94763.81;10426771;28;1368;-54
2022/04/21 12:09:33;;;;;;;;;;;;;;;17.32;30.76;94747.06;10428109;28;1491;-58
2022/04/21 12:14:33;;;;;;;;;;;;;;;17.32;30.80;94748.88;10431801;28;1906;-56
2022/04/21 12:19:41;;;;;;;;;;;;;;;17.35;30.79;94746.47;10434948;28;1350;-55
2022/04/21 12:24:41;;;;;;;;;;;;;;;17.34;30.81;94737.06;10432869;28;1317;-56
2022/04/21 12:29:51;;;;;;;;;;;;;;;17.36;30.69;94742.03;10438522;28;1407;-56
2022/04/21 12:34:54;;;;;;;;;;;;;;;17.36;30.77;94732.34;10441266;28;1949;-56
2022/04/21 12:39:55;;;;;;;;;;;;;;;17.36;30.66;94734.97;10432584;28;1313;-55
2022/04/21 12:44:56;;;;;;;;;;;;;;;17.36;30.74;94727.09;10430956;28;1371;-58
2022/04/21 12:49:56;;;;;;;;;;;;;;;17.35;30.92;94722.91;10416558;28;1843;-56
2022/04/21 12:54:56;;;;;;;;;;;;;;;17.37;30.79;94709.56;10432822;28;1883;-57
2022/04/21 12:59:57;;;;;;;;;;;;;;;17.38;30.77;94701.41;10435017;28;1564;-57
2022/04/21 13:04:57;;;;;;;;;;;;;;;17.37;30.79;94710.31;10430331;28;1368;-55
2022/04/21 13:09:58;;;;;;;;;;;;;;;17.38;30.88;94711.09;10450252;28;1465;-57
2022/04/21 13:14:58;;;;;;;;;;;;;;;17.38;30.81;94701.41;10429152;28;1902;-57
2022/04/21 13:19:59;;;;;;;;;;;;;;;17.39;30.97;94689.09;10433024;28;1364;-57
2022/04/21 13:24:59;;;;;;;;;;;;;;;17.40;30.88;94694.06;10431707;28;1222;-57
2022/04/21 13:29:59;;;;;;;;;;;;;;;17.38;30.91;94693.56;10432820;28;1656;-57
2022/04/21 13:35:00;;;;;;;;;;;;;;;17.39;30.98;94692.50;10429529;28;1909;-57
2022/04/21 13:40:00;;;;;;;;;;;;;;;17.41;31.10;94694.84;10430413;28;1498;-55
2022/04/21 13:45:00;;;;;;;;;;;;;;;17.43;31.01;94677.00;10430307;28;1316;-56
2022/04/21 13:50:04;;;;;;;;;;;;;;;17.41;31.01;94671.25;10436557;28;1533;-57
2022/04/21 13:55:04;;;;;;;;;;;;;;;17.41;31.01;94669.44;10429180;28;1902;-56
2022/04/21 14:00:06;;;;;;;;;;;;;;;17.42;31.02;94664.94;10431231;28;1514;-57
2022/04/21 14:05:06;;;;;;;;;;;;;;;17.43;31.05;94669.94;10444725;28;1452;-56
2022/04/21 14:10:07;;;;;;;;;;;;;;;17.41;31.14;94666.03;10430265;28;1370;-57
2022/04/21 14:15:08;;;;;;;;;;;;;;;17.40;31.01;94660.00;10430085;28;1902;-57
2022/04/21 14:20:10;;;;;;;;;;;;;;;17.41;31.18;94658.94;10459674;22;1684;-40
2022/04/21 14:25:10;;;;;;;;;;;;;;;17.41;31.06;94643.25;10449150;28;1401;-42
2022/04/21 14:30:10;;;;;;;;;;;;;;;17.43;30.97;94653.44;10425289;28;1364;-42
2022/04/21 14:35:11;;;;;;;;;;;;;;;17.42;31.11;94639.53;10430037;28;1902;-39
2022/04/21 14:45:30;;;;;;;;;;;;;;;17.43;31.15;94642.94;10420892;28;1180;-39
2022/04/21 14:50:31;;;;;;;;;;;;;;;17.42;31.09;94639.53;10416419;28;1304;-40
2022/04/21 14:55:32;;;;;;;;;;;;;;;17.43;30.96;94641.13;10404022;28;1961;-39
2022/04/21 15:00:32;;;;;;;;;;;;;;;17.41;30.96;94630.13;10428034;28;1366;-39
2022/04/21 15:05:32;;;;;;;;;;;;;;;17.42;31.05;94636.91;10427709;28;1313;-41
2022/04/21 15:10:37;;;;;;;;;;;;;;;17.41;30.96;94632.75;10426737;28;1964;-41
2022/04/21 15:15:37;;;;;;;;;;;;;;;17.42;31.25;94634.31;10408702;28;1906;-41
2022/04/21 15:20:38;;;;;;;;;;;;;;;17.43;31.04;94629.84;10400477;28;1369;-40
2022/04/21 15:25:38;;;;;;;;;;;;;;;17.40;30.91;94625.94;10405379;28;1882;-40
2022/04/21 15:30:40;;;;;;;;;;;;;;;17.39;30.91;94623.63;10393266;28;2216;-40
2022/04/21 15:35:41;;;;;;;;;;;;;;;17.40;30.94;94628.56;10424440;28;1921;-39
2022/04/21 15:40:41;;;;;;;;;;;;;;;17.42;31.03;94623.81;10426102;28;1352;-47
2022/04/21 15:45:42;;;;;;;;;;;;;;;17.42;31.04;94629.06;10421507;28;1215;-40
2022/04/21 15:50:43;;;;;;;;;;;;;;;17.40;30.98;94617.28;10420564;28;1791;-43
2022/04/21 16:01:03;;;;;;;;;;;;;;;17.38;31.02;94617.59;10422451;28;1356;-39
2022/04/21 16:06:03;;;;;;;;;;;;;;;17.40;31.03;94620.69;10403568;28;1839;-43
2022/04/21 16:11:04;;;;;;;;;;;;;;;17.38;31.06;94607.09;10399591;28;1662;-42
2022/04/21 16:16:04;;;;;;;;;;;;;;;17.38;30.97;94598.47;10401520;28;1969;-40
2022/04/21 16:21:04;;;;;;;;;;;;;;;17.38;31.03;94614.97;10425522;28;1262;-40
2022/04/21 16:26:05;;;;;;;;;;;;;;;17.38;31.08;94606.31;10407574;28;1361;-39
2022/04/21 16:31:07;;;;;;;;;;;;;;;17.37;31.03;94605.53;10424966;28;1337;-40
2022/04/21 16:36:08;;;;;;;;;;;;;;;17.36;31.05;94601.38;10406009;28;1977;-40
2022/04/21 16:41:09;;;;;;;;;;;;;;;17.37;30.91;94597.69;10430769;28;1406;-40
2022/04/21 16:46:09;;;;;;;;;;;;;;;17.36;31.01;94598.75;10402014;28;1301;-40
2022/04/21 16:51:09;;;;;;;;;;;;;;;17.36;31.00;94585.66;10403826;28;1718;-41
2022/04/21 16:56:11;;;;;;;;;;;;;;;17.37;30.99;94589.81;10426829;28;1902;-42
2022/04/21 17:06:31;;;;;;;;;;;;;;;17.35;31.02;94589.31;10432147;28;1344;-40
2022/04/21 17:11:32;;;;;;;;;;;;;;;17.34;30.91;94600.88;10427135;28;1210;-39
2022/04/21 17:16:32;;;;;;;;;;;;;;;17.36;31.07;94598.75;10431415;28;1910;-40
2022/04/21 17:21:33;;;;;;;;;;;;;;;17.34;31.02;94595.63;10423705;28;1227;-41
2022/04/21 17:26:34;;;;;;;;;;;;;;;17.33;30.94;94596.69;10423492;28;1367;-40
2022/04/21 17:31:36;;;;;;;;;;;;;;;17.34;31.04;94593.00;10413163;28;1283;-42
2022/04/21 17:36:36;;;;;;;;;;;;;;;17.33;30.85;94603.78;10409412;28;1914;-44
2022/04/21 17:41:36;;;;;;;;;;;;;;;17.33;30.95;94606.41;10431910;28;1443;-41
2022/04/21 17:46:37;;;;;;;;;;;;;;;17.32;30.90;94607.44;10395109;28;1498;-40
2022/04/21 17:51:37;;;;;;;;;;;;;;;17.31;30.86;94611.13;10408661;28;1787;-40
2022/04/21 17:56:38;;;;;;;;;;;;;;;17.30;30.95;94610.34;10410870;28;1918;-39
2022/04/21 18:01:38;;;;;;;;;;;;;;;17.29;30.82;94606.16;10403191;28;1883;-41
2022/04/21 18:06:38;;;;;;;;;;;;;;;17.31;30.79;94611.13;10412900;28;1554;-40
2022/04/21 18:11:39;;;;;;;;;;;;;;;17.30;30.81;94605.09;10409113;28;1482;-41
2022/04/21 18:16:39;;;;;;;;;;;;;;;17.30;30.96;94612.97;10412568;28;1910;-38
2022/04/21 18:21:40;;;;;;;;;;;;;;;17.29;31.01;94611.41;10408594;28;1531;-39
2022/04/21 18:26:41;;;;;;;;;;;;;;;17.29;30.92;94608.00;10431280;28;1357;-39
2022/04/21 18:31:41;;;;;;;;;;;;;;;17.28;30.89;94617.72;10425399;28;1312;-40
2022/04/21 18:36:44;;;;;;;;;;;;;;;17.29;30.89;94621.13;10424676;28;1914;-39
2022/04/21 18:41:44;;;;;;;;;;;;;;;17.29;30.97;94624.50;10421132;28;1440;-39
2022/04/21 18:46:44;;;;;;;;;;;;;;;17.29;30.94;94621.13;10423888;28;1360;-43
2022/04/21 18:51:48;;;;;;;;;;;;;;;17.28;30.86;94614.31;10400557;28;1745;-40
2022/04/21 18:56:50;;;;;;;;;;;;;;;17.27;30.92;94610.13;10400551;28;2025;-40
2022/04/21 19:01:51;;;;;;;;;;;;;;;17.27;30.81;94615.38;10398002;28;1639;-41
2022/04/21 19:06:53;;;;;;;;;;;;;;;17.28;30.90;94616.91;10423850;28;1307;-44
2022/04/21 19:11:53;;;;;;;;;;;;;;;17.26;30.92;94614.59;10414329;28;1419;-42
2022/04/21 19:16:53;;;;;;;;;;;;;;;17.26;30.86;94614.59;10408126;28;1969;-42
2022/04/21 19:21:54;;;;;;;;;;;;;;;17.28;30.80;94612.47;10416833;28;1297;-41
2022/04/21 19:26:55;;;;;;;;;;;;;;;17.27;30.83;94616.13;10399564;28;1386;-41
2022/04/21 19:31:58;;;;;;;;;;;;;;;17.27;30.82;94620.63;10401930;28;1450;-40
2022/04/21 19:36:58;;;;;;;;;;;;;;;17.26;30.73;94614.59;10409479;28;1886;-40
2022/04/21 19:41:59;;;;;;;;;;;;;;;17.27;30.92;94610.13;10410113;28;1543;-45
2022/04/21 19:47:00;;;;;;;;;;;;;;;17.25;30.82;94602.53;10403239;28;1573;-41
2022/04/21 19:52:00;;;;;;;;;;;;;;;17.26;30.80;94596.25;10419920;28;1425;-40
2022/04/21 19:57:00;;;;;;;;;;;;;;;17.25;30.67;94592.06;10425847;28;1903;-41
2022/04/21 20:02:01;;;;;;;;;;;;;;;17.23;30.89;94594.19;10436379;28;1307;-41
2022/04/21 20:12:20;;;;;;;;;;;;;;;17.25;30.74;94591.31;10408143;28;1066;-44
2022/04/21 20:17:22;;;;;;;;;;;;;;;17.24;30.69;94580.03;10424540;28;1973;-41
2022/04/21 20:22:22;;;;;;;;;;;;;;;17.24;30.67;94577.44;10416767;23;1975;-54
2022/04/21 20:27:22;;;;;;;;;;;;;;;17.23;30.68;94570.63;10404164;28;1096;-55
2022/04/21 20:32:24;;;;;;;;;;;;;;;17.23;30.71;94560.13;10390573;28;1375;-57
2022/04/21 20:37:24;;;;;;;;;;;;;;;17.24;30.81;94560.91;10389407;28;1913;-57
2022/04/21 20:42:25;;;;;;;;;;;;;;;17.24;30.76;94553.84;10393229;28;1413;-54
2022/04/21 20:47:26;;;;;;;;;;;;;;;17.24;30.77;94548.63;10394067;28;1432;-56
2022/04/21 20:52:26;;;;;;;;;;;;;;;17.24;30.86;94542.59;10377056;28;1490;-56
2022/04/21 20:57:27;;;;;;;;;;;;;;;17.24;30.77;94543.38;10376054;28;1906;-56
2022/04/21 21:02:27;;;;;;;;;;;;;;;17.24;30.71;94540.75;10392422;28;1387;-58
2022/04/21 21:07:27;;;;;;;;;;;;;;;17.24;30.79;94534.72;10373636;28;1509;-55
2022/04/21 21:12:28;;;;;;;;;;;;;;;17.23;30.94;94538.44;10377423;28;1559;-58
2022/04/21 21:17:28;;;;;;;;;;;;;;;17.23;30.72;94531.31;10388024;28;1914;-56
2022/04/21 21:22:29;;;;;;;;;;;;;;;17.21;30.75;94533.44;10374511;28;1833;-58
2022/04/21 21:27:29;;;;;;;;;;;;;;;17.22;30.90;94529.78;10372663;28;1325;-55
2022/04/21 21:32:29;;;;;;;;;;;;;;;17.22;30.75;94524.56;10374694;28;1436;-56
2022/04/21 21:37:30;;;;;;;;;;;;;;;17.22;30.89;94521.94;10387800;28;1967;-56
2022/04/21 21:42:31;;;;;;;;;;;;;;;17.22;30.85;94518.53;10394124;28;1282;-56
2022/04/21 21:47:32;;;;;;;;;;;;;;;17.21;30.70;94506.50;10391082;28;1340;-56
2022/04/21 21:57:52;;;;;;;;;;;;;;;17.20;30.83;94499.69;10391955;28;1906;-58
2022/04/21 22:02:54;;;;;;;;;;;;;;;17.21;30.65;94496.78;10387552;28;1456;-55
2022/04/21 22:07:54;;;;;;;;;;;;;;;17.21;30.84;94488.19;10372155;28;2140;-56
2022/04/21 22:12:58;;;;;;;;;;;;;;;17.22;30.76;94492.34;10367853;28;1567;-55
2022/04/21 22:17:59;;;;;;;;;;;;;;;17.20;30.79;94478.75;10368376;28;1898;-56
2022/04/21 22:23:00;;;;;;;;;;;;;;;17.20;30.76;94471.69;10388679;28;1212;-58
2022/04/21 22:28:00;;;;;;;;;;;;;;;17.20;30.84;94469.06;10390285;28;1360;-57
2022/04/21 22:33:01;;;;;;;;;;;;;;;17.21;30.75;94472.47;10392231;28;1368;-56
2022/04/21 22:38:03;;;;;;;;;;;;;;;17.20;30.78;94463.81;10387804;28;1914;-58
2022/04/21 22:43:04;;;;;;;;;;;;;;;17.20;30.85;94466.44;10391699;28;1254;-56
2022/04/21 22:48:05;;;;;;;;;;;;;;;17.19;30.91;94454.41;10371984;28;1668;-57
2022/04/21 22:53:06;;;;;;;;;;;;;;;17.17;30.90;94451.28;10366405;28;1332;-58
2022/04/21 22:58:06;;;;;;;;;;;;;;;17.19;30.78;94451.78;10368775;28;1965;-58
2022/04/21 23:03:06;;;;;;;;;;;;;;;17.18;30.92;94455.47;10371720;28;1434;-56
2022/04/21 23:08:07;;;;;;;;;;;;;;;17.18;30.86;94450.22;10369859;28;1531;-57
2022/04/21 23:13:30;;;;;;;;;;;;;;;17.19;30.96;94441.31;10389817;28;990;-56
2022/04/21 23:18:30;;;;;;;;;;;;;;;17.17;31.15;94443.44;10389127;28;1909;-58
2022/04/21 23:23:33;;;;;;;;;;;;;;;17.18;31.00;94439.75;10383808;28;1329;-54
2022/04/21 23:28:34;;;;;;;;;;;;;;;17.18;30.94;94425.88;10387213;28;1361;-57
2022/04/21 23:33:35;;;;;;;;;;;;;;;17.18;30.92;94410.97;10389468;28;1116;-57
2022/04/21 23:38:37;;;;;;;;;;;;;;;17.18;30.85;94410.97;10366681;28;1918;-56
2022/04/21 23:43:37;;;;;;;;;;;;;;;17.17;30.87;94406.78;10368554;28;1307;-54
2022/04/21 23:48:38;;;;;;;;;;;;;;;17.18;30.79;94403.09;10371220;28;1412;-56
2022/04/21 23:53:38;;;;;;;;;;;;;;;17.19;30.96;94388.19;10368435;28;1289;-56
2022/04/21 23:58:39;;;;;;;;;;;;;;;17.19;30.91;94393.41;10368789;28;1914;-55
